createdAt,value
2023-02-15T00:01:21.229Z,14.50
2023-02-15T00:03:49.464Z,13.13
2023-02-15T00:06:17.197Z,11.40
2023-02-15T00:08:44.547Z,11.17
2023-02-15T00:11:13.069Z,11.37
2023-02-15T00:13:43.003Z,12.17
2023-02-15T00:16:10.986Z,11.83
2023-02-15T00:18:39.902Z,13.17
2023-02-15T00:21:08.341Z,12.23
2023-02-15T00:23:35.819Z,11.63
2023-02-15T00:26:10.041Z,10.97
2023-02-15T00:28:37.646Z,10.83
2023-02-15T00:31:09.211Z,12.87
2023-02-15T00:33:36.704Z,12.27
2023-02-15T00:36:05.668Z,12.73
2023-02-15T00:38:33.731Z,12.87
2023-02-15T00:41:02.417Z,13.90
2023-02-15T00:43:30.561Z,14.87
2023-02-15T00:45:58.001Z,14.83
2023-02-15T00:48:25.616Z,16.07
2023-02-15T00:50:53.872Z,15.77
2023-02-15T00:53:22.742Z,16.37
2023-02-15T00:55:50.318Z,17.87
2023-02-15T00:58:17.703Z,16.63
2023-02-15T01:00:46.038Z,17.37
2023-02-15T01:03:14.075Z,15.90
2023-02-15T01:05:41.451Z,17.60
2023-02-15T01:08:08.843Z,16.10
2023-02-15T01:10:37.890Z,17.63
2023-02-15T01:13:05.278Z,15.70
2023-02-15T01:15:32.674Z,16.30
2023-02-15T01:18:00.032Z,15.77
2023-02-15T01:20:28.248Z,16.33
2023-02-15T01:22:56.948Z,15.53
2023-02-15T01:25:25.180Z,16.97
2023-02-15T01:27:53.867Z,18.37
2023-02-15T01:30:21.341Z,16.63
2023-02-15T01:32:48.724Z,15.67
2023-02-15T01:35:16.072Z,16.23
2023-02-15T01:37:43.413Z,14.17
2023-02-15T01:40:14.119Z,15.10
2023-02-15T01:42:42.256Z,13.87
2023-02-15T01:45:19.791Z,14.67
2023-02-15T01:47:49.749Z,14.00
2023-02-15T01:50:18.534Z,13.90
2023-02-15T01:52:48.188Z,14.87
2023-02-15T01:55:15.696Z,13.23
2023-02-15T01:57:43.171Z,15.87
2023-02-15T02:00:11.036Z,14.40
2023-02-15T02:02:39.815Z,14.40
2023-02-15T02:05:08.726Z,14.23
2023-02-15T02:07:39.087Z,14.70
2023-02-15T02:10:07.412Z,13.37
2023-02-15T02:12:35.245Z,14.53
2023-02-15T02:15:02.689Z,14.07
2023-02-15T02:17:36.212Z,13.27
2023-02-15T02:20:15.813Z,13.23
2023-02-15T02:22:55.188Z,14.03
2023-02-15T02:25:40.338Z,13.50
2023-02-15T02:28:16.279Z,13.00
2023-02-15T02:31:01.790Z,11.53
2023-02-15T02:33:50.224Z,11.90
2023-02-15T02:36:21.848Z,12.97
2023-02-15T02:38:54.834Z,13.43
2023-02-15T02:41:24.771Z,11.00
2023-02-15T02:43:56.191Z,13.40
2023-02-15T02:46:27.241Z,15.33
2023-02-15T02:48:54.694Z,13.70
2023-02-15T02:51:23.454Z,14.27
2023-02-15T02:53:53.589Z,14.83
2023-02-15T02:56:23.613Z,13.10
2023-02-15T02:58:51.817Z,11.13
2023-02-15T03:01:22.515Z,12.63
2023-02-15T03:03:51.415Z,12.93
2023-02-15T03:06:20.969Z,12.17
2023-02-15T03:08:51.931Z,11.87
2023-02-15T03:11:19.277Z,10.93
2023-02-15T03:13:48.384Z,11.20
2023-02-15T03:16:28.684Z,13.33
2023-02-15T03:18:58.826Z,12.77
2023-02-15T03:21:29.545Z,11.33
2023-02-15T03:24:00.444Z,12.13
2023-02-15T03:26:28.780Z,10.13
2023-02-15T03:28:57.609Z,12.67
2023-02-15T03:31:27.346Z,12.73
2023-02-15T03:33:57.257Z,10.13
2023-02-15T03:36:26.490Z,12.60
2023-02-15T03:39:00.156Z,11.80
2023-02-15T03:41:31.948Z,12.83
2023-02-15T03:44:00.739Z,12.80
2023-02-15T03:46:30.372Z,11.97
2023-02-15T03:48:59.665Z,11.73
2023-02-15T03:51:34.796Z,11.73
2023-02-15T03:54:03.427Z,12.53
2023-02-15T03:56:32.585Z,11.90
2023-02-15T03:59:17.659Z,11.17
2023-02-15T04:01:59.978Z,11.93
2023-02-15T04:04:29.621Z,12.27
2023-02-15T04:06:56.970Z,11.57
2023-02-15T04:09:42.174Z,13.30
2023-02-15T04:12:10.838Z,13.70
2023-02-15T04:14:55.834Z,13.30
2023-02-15T04:17:23.486Z,12.50
2023-02-15T04:20:08.650Z,9.93
2023-02-15T04:22:53.436Z,9.50
2023-02-15T04:25:20.981Z,12.23
2023-02-15T04:27:51.398Z,13.40
2023-02-15T04:30:20.207Z,13.37
2023-02-15T04:32:47.826Z,13.17
2023-02-15T04:35:15.513Z,12.63
2023-02-15T04:37:43.106Z,10.97
2023-02-15T04:40:11.038Z,10.80
2023-02-15T04:42:38.412Z,10.83
2023-02-15T04:45:07.589Z,10.67
2023-02-15T04:47:34.930Z,10.67
2023-02-15T04:50:02.284Z,10.73
2023-02-15T04:52:29.664Z,9.07
2023-02-15T04:54:57.007Z,10.73
2023-02-15T04:57:24.355Z,11.83
2023-02-15T04:59:51.737Z,12.30
2023-02-15T05:02:20.427Z,10.33
2023-02-15T05:04:47.791Z,12.13
2023-02-15T05:07:15.714Z,9.50
2023-02-15T05:09:43.134Z,11.30
2023-02-15T05:12:10.446Z,10.63
2023-02-15T05:14:37.801Z,12.10
2023-02-15T05:17:06.193Z,11.07
2023-02-15T05:19:34.918Z,11.00
2023-02-15T05:22:02.269Z,9.97
2023-02-15T05:24:47.081Z,11.77
2023-02-15T05:27:32.388Z,12.17
2023-02-15T05:29:59.859Z,11.53
2023-02-15T05:32:27.472Z,11.53
2023-02-15T05:34:56.230Z,11.13
2023-02-15T05:37:23.584Z,10.20
2023-02-15T05:39:50.910Z,11.70
2023-02-15T05:42:18.250Z,11.33
2023-02-15T05:44:45.595Z,10.53
2023-02-15T05:47:13.049Z,11.10
2023-02-15T05:49:40.404Z,10.67
2023-02-15T05:52:09.238Z,11.00
2023-02-15T05:54:36.675Z,9.77
2023-02-15T05:57:04.101Z,9.70
2023-02-15T05:59:31.434Z,9.83
2023-02-15T06:01:58.869Z,10.10
2023-02-15T06:04:26.299Z,9.90
2023-02-15T06:06:53.689Z,10.63
2023-02-15T06:09:22.392Z,11.17
2023-02-15T06:11:49.750Z,10.67
2023-02-15T06:14:17.094Z,8.90
2023-02-15T06:16:44.403Z,11.30
2023-02-15T06:19:12.031Z,10.20
2023-02-15T06:21:39.391Z,10.00
2023-02-15T06:24:06.962Z,10.80
2023-02-15T06:26:35.620Z,11.60
2023-02-15T06:29:02.981Z,10.13
2023-02-15T06:31:30.414Z,11.23
2023-02-15T06:34:01.823Z,11.27
2023-02-15T06:36:29.450Z,10.67
2023-02-15T06:38:57.007Z,10.57
2023-02-15T06:41:24.770Z,11.53
2023-02-15T06:43:53.553Z,11.50
2023-02-15T06:46:20.979Z,9.97
2023-02-15T06:48:48.392Z,11.37
2023-02-15T06:51:15.744Z,10.63
2023-02-15T06:53:43.792Z,9.73
2023-02-15T06:56:11.994Z,9.87
2023-02-15T06:58:39.675Z,11.70
2023-02-15T07:01:08.467Z,10.13
2023-02-15T07:03:36.533Z,10.43
2023-02-15T07:06:07.041Z,9.73
2023-02-15T07:08:34.370Z,9.37
2023-02-15T07:11:15.848Z,10.10
2023-02-15T07:13:43.634Z,9.97
2023-02-15T07:16:12.796Z,10.40
2023-02-15T07:18:40.205Z,10.67
2023-02-15T07:21:08.843Z,11.80
2023-02-15T07:23:36.469Z,9.67
2023-02-15T07:26:04.050Z,8.53
2023-02-15T07:28:31.890Z,11.43
2023-02-15T07:30:59.489Z,10.13
2023-02-15T07:33:29.812Z,9.20
2023-02-15T07:35:58.803Z,10.13
2023-02-15T07:38:27.022Z,10.87
2023-02-15T07:40:59.420Z,10.33
2023-02-15T07:43:26.785Z,10.33
2023-02-15T07:45:54.117Z,10.17
2023-02-15T07:48:23.819Z,9.73
2023-02-15T07:50:53.535Z,10.10
2023-02-15T07:53:20.927Z,9.07
2023-02-15T07:55:48.263Z,10.03
2023-02-15T07:58:15.676Z,10.37
2023-02-15T08:00:56.996Z,9.43
2023-02-15T08:03:27.549Z,9.47
2023-02-15T08:05:59.524Z,10.47
2023-02-15T08:08:32.983Z,10.00
2023-02-15T08:11:18.717Z,11.03
2023-02-15T08:13:55.356Z,9.50
2023-02-15T08:16:24.047Z,9.30
2023-02-15T08:18:51.439Z,8.30
2023-02-15T08:21:20.132Z,10.73
2023-02-15T08:23:47.817Z,10.40
2023-02-15T08:26:15.575Z,9.73
2023-02-15T08:28:43.083Z,10.03
2023-02-15T08:31:11.088Z,9.07
2023-02-15T08:33:39.559Z,11.53
2023-02-15T08:36:07.965Z,9.27
2023-02-15T08:38:36.710Z,9.13
2023-02-15T08:41:11.431Z,9.93
2023-02-15T08:43:39.250Z,9.67
2023-02-15T08:46:06.743Z,9.47
2023-02-15T08:48:34.475Z,9.20
2023-02-15T08:51:06.352Z,9.70
2023-02-15T08:53:33.766Z,9.07
2023-02-15T08:56:02.503Z,9.37
2023-02-15T08:58:30.401Z,9.83
2023-02-15T09:00:57.753Z,10.47
2023-02-15T09:03:25.101Z,10.10
2023-02-15T09:05:52.546Z,9.93
2023-02-15T09:08:19.870Z,9.87
2023-02-15T09:10:47.205Z,9.90
2023-02-15T09:13:15.914Z,10.10
2023-02-15T09:15:43.249Z,9.53
2023-02-15T09:18:10.744Z,9.73
2023-02-15T09:20:38.194Z,10.87
2023-02-15T09:23:05.548Z,10.57
2023-02-15T09:25:32.869Z,10.93
2023-02-15T09:28:00.183Z,9.77
2023-02-15T09:30:29.086Z,10.00
2023-02-15T09:32:56.468Z,9.50
2023-02-15T09:35:23.823Z,9.03
2023-02-15T09:37:51.174Z,10.47
2023-02-15T09:40:19.300Z,9.80
2023-02-15T09:43:06.434Z,9.43
2023-02-15T09:45:40.065Z,9.63
2023-02-15T09:48:15.562Z,8.83
2023-02-15T09:50:48.187Z,9.70
2023-02-15T09:53:22.746Z,9.17
2023-02-15T09:55:52.647Z,8.80
2023-02-15T09:58:24.949Z,8.97
2023-02-15T10:00:57.480Z,9.07
2023-02-15T10:03:32.358Z,9.00
2023-02-15T10:06:07.553Z,10.00
2023-02-15T10:08:58.103Z,9.07
2023-02-15T10:11:41.900Z,9.63
2023-02-15T10:14:20.747Z,9.60
2023-02-15T10:16:53.788Z,9.70
2023-02-15T10:19:27.781Z,9.00
2023-02-15T10:22:00.351Z,9.40
2023-02-15T10:24:48.754Z,9.67
2023-02-15T10:27:20.497Z,8.97
2023-02-15T10:29:50.947Z,9.70
2023-02-15T10:32:24.779Z,9.97
2023-02-15T10:34:53.715Z,10.30
2023-02-15T10:37:45.116Z,9.47
2023-02-15T10:40:16.810Z,9.80
2023-02-15T10:42:52.940Z,9.67
2023-02-15T10:45:25.799Z,9.93
2023-02-15T10:48:08.981Z,10.30
2023-02-15T10:50:43.451Z,9.73
2023-02-15T10:53:28.332Z,10.07
2023-02-15T10:55:57.969Z,10.10
2023-02-15T10:58:31.800Z,9.40
2023-02-15T11:01:02.954Z,10.17
2023-02-15T11:03:48.125Z,10.77
2023-02-15T11:06:17.159Z,9.47
2023-02-15T11:08:45.930Z,10.40
2023-02-15T11:11:17.483Z,9.93
2023-02-15T11:13:47.339Z,9.80
2023-02-15T11:16:18.613Z,8.67
2023-02-15T11:18:50.418Z,8.80
2023-02-15T11:21:21.280Z,9.03
2023-02-15T11:23:49.412Z,8.97
2023-02-15T11:26:18.783Z,8.97
2023-02-15T11:28:49.069Z,8.07
2023-02-15T11:31:18.715Z,9.20
2023-02-15T11:33:48.745Z,8.90
2023-02-15T11:36:18.185Z,9.10
2023-02-15T11:38:46.699Z,8.10
2023-02-15T11:41:16.340Z,8.13
2023-02-15T11:43:45.073Z,8.93
2023-02-15T11:46:13.455Z,8.50
2023-02-15T11:48:41.226Z,7.87
2023-02-15T11:51:13.724Z,9.10
2023-02-15T11:53:41.444Z,8.67
2023-02-15T11:56:14.581Z,7.73
2023-02-15T11:58:43.182Z,8.53
2023-02-15T12:01:13.053Z,9.00
2023-02-15T12:03:46.271Z,8.33
2023-02-15T12:06:18.108Z,8.53
2023-02-15T12:08:48.022Z,8.23
2023-02-15T12:11:18.960Z,9.30
2023-02-15T12:13:56.869Z,8.67
2023-02-15T12:16:24.319Z,8.83
2023-02-15T12:18:52.941Z,9.00
2023-02-15T12:21:28.092Z,8.90
2023-02-15T12:23:57.424Z,8.67
2023-02-15T12:26:29.206Z,8.33
2023-02-15T12:28:58.944Z,9.07
2023-02-15T12:31:28.593Z,9.00
2023-02-15T12:33:57.877Z,8.40
2023-02-15T12:36:28.915Z,8.13
2023-02-15T12:39:05.619Z,8.40
2023-02-15T12:41:32.986Z,8.97
2023-02-15T12:44:14.307Z,8.07
2023-02-15T12:46:42.130Z,8.80
2023-02-15T12:49:20.400Z,8.47
2023-02-15T12:51:50.682Z,7.80
2023-02-15T12:54:23.446Z,8.30
2023-02-15T12:56:51.032Z,9.17
2023-02-15T12:59:23.113Z,9.15
2023-02-15T13:01:51.119Z,7.63
2023-02-15T13:04:23.030Z,9.13
2023-02-15T13:06:53.589Z,8.67
2023-02-15T13:09:22.328Z,9.03
2023-02-15T13:11:49.743Z,9.30
2023-02-15T13:14:19.230Z,7.63
2023-02-15T13:16:47.726Z,8.13
2023-02-15T13:19:18.042Z,8.83
2023-02-15T13:21:46.213Z,8.45
2023-02-15T13:24:19.779Z,7.80
2023-02-15T13:26:48.090Z,8.70
2023-02-15T13:29:19.234Z,7.88
2023-02-15T13:31:46.800Z,8.10
2023-02-15T13:34:19.202Z,7.50
2023-02-15T13:36:51.434Z,8.35
2023-02-15T13:39:24.626Z,7.63
2023-02-15T13:41:55.081Z,7.68
2023-02-15T13:44:28.029Z,8.35
2023-02-15T13:47:00.574Z,8.48
2023-02-15T13:49:35.726Z,7.63
2023-02-15T13:52:07.284Z,7.60
2023-02-15T13:54:49.552Z,7.93
2023-02-15T13:57:33.863Z,7.32
2023-02-15T14:00:07.540Z,6.85
2023-02-15T14:02:40.832Z,7.57
2023-02-15T14:05:16.228Z,7.65
2023-02-15T14:07:55.682Z,7.97
2023-02-15T14:10:29.742Z,7.32
2023-02-15T14:13:07.342Z,7.90
2023-02-15T14:15:38.011Z,8.05
2023-02-15T14:18:14.398Z,7.13
2023-02-15T14:20:45.948Z,8.80
2023-02-15T14:23:18.208Z,7.38
2023-02-15T14:25:50.075Z,7.40
2023-02-15T14:28:22.619Z,7.38
2023-02-15T14:30:51.462Z,6.78
2023-02-15T14:33:32.822Z,7.45
2023-02-15T14:36:02.332Z,8.02
2023-02-15T14:38:38.330Z,7.88
2023-02-15T14:41:08.122Z,7.20
2023-02-15T14:43:44.189Z,7.22
2023-02-15T14:46:13.808Z,6.18
2023-02-15T14:48:44.281Z,7.63
2023-02-15T14:51:12.037Z,6.97
2023-02-15T14:53:42.950Z,6.80
2023-02-15T14:56:22.546Z,7.65
2023-02-15T14:59:02.340Z,7.13
2023-02-15T15:01:31.585Z,7.47
2023-02-15T15:04:00.247Z,6.10
2023-02-15T15:06:28.934Z,6.72
2023-02-15T15:09:00.410Z,6.47
2023-02-15T15:11:44.283Z,7.90
2023-02-15T15:14:33.601Z,7.22
2023-02-15T15:17:01.347Z,7.20
2023-02-15T15:19:58.628Z,7.22
2023-02-15T15:22:26.642Z,6.75
2023-02-15T15:24:55.000Z,7.40
2023-02-15T15:27:38.468Z,7.20
2023-02-15T15:30:33.012Z,7.90
2023-02-15T15:33:06.066Z,7.22
2023-02-15T15:35:36.905Z,6.57
2023-02-15T15:38:13.487Z,7.07
2023-02-15T15:40:53.284Z,7.43
2023-02-15T15:43:37.138Z,6.97
2023-02-15T15:46:15.393Z,7.13
2023-02-15T15:48:44.092Z,7.88
2023-02-15T15:51:14.077Z,8.13
2023-02-15T15:53:43.289Z,6.87
2023-02-15T15:56:13.911Z,8.30
2023-02-15T15:58:44.108Z,7.72
2023-02-15T16:01:14.577Z,7.73
2023-02-15T16:03:51.924Z,6.97
2023-02-15T16:06:29.319Z,7.30
2023-02-15T16:08:56.783Z,7.28
2023-02-15T16:11:26.220Z,7.05
2023-02-15T16:13:53.932Z,8.30
2023-02-15T16:16:22.978Z,7.85
2023-02-15T16:18:52.143Z,8.02
2023-02-15T16:21:21.610Z,7.20
2023-02-15T16:24:02.318Z,8.03
2023-02-15T16:26:55.412Z,8.23
2023-02-15T16:29:28.752Z,8.60
2023-02-15T16:32:00.828Z,8.77
2023-02-15T16:34:33.220Z,6.77
2023-02-15T16:37:16.714Z,8.83
2023-02-15T16:39:44.440Z,8.47
2023-02-15T16:42:12.654Z,9.00
2023-02-15T16:44:41.258Z,9.57
2023-02-15T16:47:14.062Z,10.33
2023-02-15T16:49:45.225Z,8.90
2023-02-15T16:52:16.521Z,9.13
2023-02-15T16:54:44.265Z,9.87
2023-02-15T16:57:17.986Z,9.53
2023-02-15T16:59:48.143Z,10.60
2023-02-15T17:02:37.257Z,10.43
2023-02-15T17:05:16.782Z,10.10
2023-02-15T17:07:50.131Z,9.10
2023-02-15T17:10:32.481Z,10.80
2023-02-15T17:13:03.233Z,10.83
2023-02-15T17:15:32.438Z,11.07
2023-02-15T17:18:01.378Z,10.00
2023-02-15T17:20:32.266Z,10.90
2023-02-15T17:23:01.558Z,9.97
2023-02-15T17:25:35.067Z,10.03
2023-02-15T17:28:02.501Z,9.97
2023-02-15T17:30:31.432Z,9.60
2023-02-15T17:32:59.812Z,9.57
2023-02-15T17:35:28.056Z,11.23
2023-02-15T17:38:04.550Z,10.10
2023-02-15T17:40:33.867Z,10.47
2023-02-15T17:43:01.501Z,12.13
2023-02-15T17:45:33.489Z,11.00
2023-02-15T17:48:03.718Z,13.50
2023-02-15T17:50:31.410Z,11.20
2023-02-15T17:52:59.278Z,10.97
2023-02-15T17:55:38.908Z,9.20
2023-02-15T17:58:07.367Z,10.63
2023-02-15T18:00:54.413Z,10.27
2023-02-15T18:03:39.343Z,9.50
2023-02-15T18:06:24.738Z,12.10
2023-02-15T18:09:12.421Z,11.93
2023-02-15T18:11:42.405Z,9.70
2023-02-15T18:14:11.063Z,11.43
2023-02-15T18:16:38.595Z,11.90
2023-02-15T18:19:06.307Z,11.63
2023-02-15T18:21:34.479Z,12.53
2023-02-15T18:24:01.857Z,10.83
2023-02-15T18:26:29.499Z,12.63
2023-02-15T18:28:58.190Z,10.53
2023-02-15T18:31:25.788Z,10.77
2023-02-15T18:33:54.749Z,12.70
2023-02-15T18:36:23.798Z,11.13
2023-02-15T18:38:51.393Z,11.83
2023-02-15T18:41:19.917Z,10.97
2023-02-15T18:43:48.863Z,12.20
2023-02-15T18:46:18.124Z,11.60
2023-02-15T18:48:46.422Z,12.03
2023-02-15T18:51:18.116Z,10.93
2023-02-15T18:53:45.785Z,11.87
2023-02-15T18:56:15.642Z,12.60
2023-02-15T18:58:43.207Z,11.33
2023-02-15T19:01:16.627Z,11.77
2023-02-15T19:03:47.081Z,11.30
2023-02-15T19:06:15.918Z,12.47
2023-02-15T19:08:44.579Z,11.57
2023-02-15T19:11:13.567Z,12.60
2023-02-15T19:13:40.936Z,14.03
2023-02-15T19:16:08.844Z,10.93
2023-02-15T19:18:36.192Z,13.97
2023-02-15T19:21:05.217Z,14.10
2023-02-15T19:23:33.467Z,13.53
2023-02-15T19:26:01.739Z,13.13
2023-02-15T19:28:30.843Z,13.80
2023-02-15T19:30:58.233Z,12.03
2023-02-15T19:33:25.588Z,12.30
2023-02-15T19:35:54.141Z,13.83
2023-02-15T19:38:24.646Z,14.03
2023-02-15T19:40:52.294Z,13.93
2023-02-15T19:43:20.311Z,12.83
2023-02-15T19:45:47.737Z,12.70
2023-02-15T19:48:15.679Z,11.67
2023-02-15T19:50:44.475Z,12.63
2023-02-15T19:53:20.627Z,14.53
2023-02-15T19:55:50.142Z,10.90
2023-02-15T19:58:19.035Z,11.00
2023-02-15T20:00:47.371Z,11.03
2023-02-15T20:03:14.725Z,12.43
2023-02-15T20:05:42.485Z,11.40
2023-02-15T20:08:15.532Z,11.53
2023-02-15T20:10:42.994Z,13.07
2023-02-15T20:13:13.969Z,12.43
2023-02-15T20:15:41.910Z,12.23
2023-02-15T20:18:09.274Z,13.07
2023-02-15T20:20:40.463Z,13.00
2023-02-15T20:23:08.278Z,14.80
2023-02-15T20:25:35.626Z,13.20
2023-02-15T20:28:02.982Z,12.43
2023-02-15T20:30:32.679Z,11.13
2023-02-15T20:33:00.192Z,11.97
2023-02-15T20:35:29.598Z,12.57
2023-02-15T20:37:59.528Z,12.97
2023-02-15T20:40:27.773Z,12.17
2023-02-15T20:42:55.495Z,14.17
2023-02-15T20:45:23.996Z,14.93
2023-02-15T20:47:53.101Z,14.97
2023-02-15T20:50:21.511Z,10.70
2023-02-15T20:52:49.441Z,13.70
2023-02-15T20:55:17.864Z,14.27
2023-02-15T20:57:45.547Z,12.37
2023-02-15T21:00:18.952Z,15.60
2023-02-15T21:02:47.755Z,14.33
2023-02-15T21:05:17.626Z,15.77
2023-02-15T21:07:45.539Z,13.80
2023-02-15T21:10:17.010Z,15.47
2023-02-15T21:12:44.933Z,14.77
2023-02-15T21:15:27.162Z,12.07
2023-02-15T21:17:54.775Z,16.00
2023-02-15T21:20:24.318Z,16.00
2023-02-15T21:22:51.956Z,12.27
2023-02-15T21:25:23.369Z,13.93
2023-02-15T21:27:51.204Z,14.23
2023-02-15T21:30:20.139Z,14.37
2023-02-15T21:32:47.620Z,14.30
2023-02-15T21:35:15.138Z,16.20
2023-02-15T21:37:44.624Z,16.10
2023-02-15T21:40:20.347Z,16.50
2023-02-15T21:43:05.383Z,16.23
2023-02-15T21:45:50.195Z,13.53
2023-02-15T21:48:17.559Z,14.80
2023-02-15T21:51:02.733Z,14.20
2023-02-15T21:53:33.340Z,15.13
2023-02-15T21:56:02.000Z,14.03
2023-02-15T21:58:30.284Z,15.73
2023-02-15T22:00:58.951Z,16.20
2023-02-15T22:03:27.150Z,16.03
2023-02-15T22:05:54.682Z,16.03
2023-02-15T22:08:22.031Z,14.97
2023-02-15T22:10:50.913Z,14.07
2023-02-15T22:13:27.501Z,16.83
2023-02-15T22:15:54.940Z,13.10
2023-02-15T22:18:23.542Z,13.43
2023-02-15T22:20:51.300Z,12.90
2023-02-15T22:23:18.696Z,14.87
2023-02-15T22:25:47.311Z,15.77
2023-02-15T22:28:17.377Z,15.83
2023-02-15T22:30:46.383Z,15.67
2023-02-15T22:33:22.472Z,16.40
2023-02-15T22:35:49.857Z,16.30
2023-02-15T22:38:17.261Z,16.70
2023-02-15T22:40:45.112Z,16.20
2023-02-15T22:43:23.256Z,16.17
2023-02-15T22:45:51.978Z,16.23
2023-02-15T22:48:22.255Z,16.27
2023-02-15T22:50:49.643Z,16.70
2023-02-15T22:53:17.091Z,15.73
2023-02-15T22:55:44.675Z,15.27
2023-02-15T22:58:16.383Z,15.83
2023-02-15T23:00:43.872Z,14.27
2023-02-15T23:03:15.432Z,17.03
2023-02-15T23:05:42.789Z,16.47
2023-02-15T23:08:10.495Z,16.30
2023-02-15T23:10:38.906Z,16.47
2023-02-15T23:13:25.719Z,16.47
2023-02-15T23:15:55.614Z,17.17
2023-02-15T23:18:26.008Z,17.27
2023-02-15T23:20:54.192Z,15.00
2023-02-15T23:23:31.108Z,15.13
2023-02-15T23:25:58.515Z,15.43
2023-02-15T23:28:27.578Z,14.20
2023-02-15T23:30:55.305Z,16.70
2023-02-15T23:33:23.845Z,15.30
2023-02-15T23:35:52.565Z,15.13
2023-02-15T23:38:21.141Z,14.97
2023-02-15T23:41:07.653Z,15.60
2023-02-15T23:43:35.034Z,15.03
2023-02-15T23:46:02.438Z,14.40
2023-02-15T23:48:32.320Z,14.87
2023-02-15T23:51:01.144Z,13.43
2023-02-15T23:53:28.713Z,16.07
2023-02-15T23:55:56.236Z,16.00
2023-02-15T23:58:26.434Z,16.77
